createdAt,value
2018-05-21T00:00:54.699Z,1.48
2018-05-21T00:03:22.175Z,1.50
2018-05-21T00:05:49.642Z,1.27
2018-05-21T00:08:17.062Z,1.05
2018-05-21T00:10:45.249Z,1.45
2018-05-21T00:13:14.201Z,1.37
2018-05-21T00:15:41.674Z,1.17
2018-05-21T00:18:09.147Z,1.55
2018-05-21T00:20:36.614Z,1.25
2018-05-21T00:23:04.082Z,1.20
2018-05-21T00:25:31.506Z,1.40
2018-05-21T00:27:59.018Z,1.23
2018-05-21T00:30:26.454Z,1.23
2018-05-21T00:32:54.660Z,1.33
2018-05-21T00:35:22.863Z,1.45
2018-05-21T00:37:50.290Z,1.62
2018-05-21T00:40:17.715Z,1.17
2018-05-21T00:42:45.133Z,1.45
2018-05-21T00:45:12.590Z,1.12
2018-05-21T00:47:40.111Z,1.25
2018-05-21T00:50:07.526Z,1.20
2018-05-21T00:52:35.055Z,1.02
2018-05-21T00:55:14.408Z,1.27
2018-05-21T00:57:41.880Z,1.33
2018-05-21T01:00:09.298Z,1.20
2018-05-21T01:02:36.731Z,1.58
2018-05-21T01:05:04.147Z,1.12
2018-05-21T01:07:32.366Z,1.27
2018-05-21T01:09:59.839Z,1.20
2018-05-21T01:12:27.322Z,1.48
2018-05-21T01:14:54.742Z,1.40
2018-05-21T01:17:22.938Z,1.20
2018-05-21T01:19:51.118Z,1.02
2018-05-21T01:22:19.354Z,1.48
2018-05-21T01:24:46.774Z,1.37
2018-05-21T01:27:15.022Z,1.40
2018-05-21T01:29:42.464Z,1.25
2018-05-21T01:32:09.885Z,1.20
2018-05-21T01:34:37.402Z,1.20
2018-05-21T01:37:04.832Z,0.85
2018-05-21T01:39:32.312Z,1.30
2018-05-21T01:42:00.515Z,1.23
2018-05-21T01:44:27.930Z,1.12
2018-05-21T01:46:55.370Z,1.35
2018-05-21T01:49:22.837Z,1.30
2018-05-21T01:51:50.306Z,1.30
2018-05-21T01:54:17.781Z,1.48
2018-05-21T01:56:45.202Z,1.65
2018-05-21T01:59:14.134Z,1.30
2018-05-21T02:01:41.622Z,1.30
2018-05-21T02:04:09.094Z,1.40
2018-05-21T02:06:36.518Z,1.60
2018-05-21T02:09:05.726Z,1.35
2018-05-21T02:11:33.247Z,1.20
2018-05-21T02:14:00.706Z,1.70
2018-05-21T02:16:28.186Z,1.42
2018-05-21T02:18:55.615Z,1.15
2018-05-21T02:21:23.835Z,1.10
2018-05-21T02:23:51.312Z,1.17
2018-05-21T02:26:18.726Z,1.40
2018-05-21T02:28:46.962Z,1.27
2018-05-21T02:31:14.451Z,1.25
2018-05-21T02:33:41.903Z,1.30
2018-05-21T02:36:09.327Z,1.23
2018-05-21T02:38:37.515Z,1.25
2018-05-21T02:41:05.043Z,1.77
2018-05-21T02:43:32.472Z,1.50
2018-05-21T02:46:00.688Z,1.50
2018-05-21T02:48:28.126Z,1.48
2018-05-21T02:50:56.317Z,1.77
2018-05-21T02:53:24.537Z,1.30
2018-05-21T02:55:51.963Z,1.25
2018-05-21T02:58:19.473Z,1.60
2018-05-21T03:00:46.898Z,1.90
2018-05-21T03:03:14.322Z,1.20
2018-05-21T03:05:41.783Z,2.03
2018-05-21T03:08:09.207Z,1.35
2018-05-21T03:10:36.719Z,1.60
2018-05-21T03:13:04.210Z,1.50
2018-05-21T03:15:31.638Z,1.60
2018-05-21T03:17:59.818Z,1.65
2018-05-21T03:20:28.013Z,1.30
2018-05-21T03:22:56.204Z,1.55
2018-05-21T03:25:24.403Z,1.62
2018-05-21T03:27:51.875Z,1.40
2018-05-21T03:30:19.309Z,1.70
2018-05-21T03:32:48.254Z,1.60
2018-05-21T03:35:15.682Z,1.98
2018-05-21T03:37:43.194Z,1.62
2018-05-21T03:40:10.618Z,1.58
2018-05-21T03:42:38.645Z,1.48
2018-05-21T03:45:06.071Z,1.67
2018-05-21T03:47:33.588Z,1.75
2018-05-21T03:50:01.054Z,1.95
2018-05-21T03:52:28.470Z,2.03
2018-05-21T03:54:57.412Z,1.70
2018-05-21T03:57:24.893Z,2.00
2018-05-21T04:00:04.176Z,1.75
2018-05-21T04:02:43.703Z,1.87
2018-05-21T04:05:11.168Z,1.92
2018-05-21T04:07:38.596Z,1.87
2018-05-21T04:10:06.103Z,2.30
2018-05-21T04:12:33.578Z,1.60
2018-05-21T04:15:01.043Z,1.85
2018-05-21T04:17:28.518Z,1.60
2018-05-21T04:19:55.934Z,1.55
2018-05-21T04:22:23.362Z,1.80
2018-05-21T04:24:50.784Z,1.90
2018-05-21T04:27:18.209Z,2.12
2018-05-21T04:29:45.666Z,1.85
2018-05-21T04:32:13.134Z,1.92
2018-05-21T04:34:40.606Z,1.95
2018-05-21T04:37:08.071Z,2.12
2018-05-21T04:39:35.569Z,1.90
2018-05-21T04:42:03.170Z,2.40
2018-05-21T04:44:30.594Z,2.12
2018-05-21T04:46:58.015Z,2.37
2018-05-21T04:49:26.243Z,2.20
2018-05-21T04:51:53.709Z,2.20
2018-05-21T04:54:21.183Z,2.40
2018-05-21T04:56:48.607Z,2.60
2018-05-21T04:59:16.025Z,2.70
2018-05-21T05:01:43.482Z,2.33
2018-05-21T05:04:10.908Z,2.08
2018-05-21T05:06:39.102Z,2.33
2018-05-21T05:09:06.614Z,2.25
2018-05-21T05:11:34.039Z,2.10
2018-05-21T05:14:01.557Z,2.17
2018-05-21T05:16:29.021Z,2.42
2018-05-21T05:18:56.490Z,2.37
2018-05-21T05:21:23.909Z,1.80
2018-05-21T05:23:51.435Z,2.35
2018-05-21T05:26:18.858Z,2.33
2018-05-21T05:28:46.375Z,2.80
2018-05-21T05:31:13.798Z,2.35
2018-05-21T05:33:41.990Z,2.40
2018-05-21T05:36:09.498Z,2.53
2018-05-21T05:38:36.930Z,2.10
2018-05-21T05:41:04.350Z,2.67
2018-05-21T05:43:31.773Z,2.47
2018-05-21T05:45:59.994Z,2.42
2018-05-21T05:48:27.423Z,2.95
2018-05-21T05:50:54.938Z,2.70
2018-05-21T05:53:22.362Z,2.83
2018-05-21T05:55:49.806Z,2.90
2018-05-21T05:58:17.347Z,3.20
2018-05-21T06:00:44.822Z,2.90
2018-05-21T06:03:12.246Z,3.22
2018-05-21T06:05:39.755Z,2.87
2018-05-21T06:08:07.184Z,2.85
2018-05-21T06:10:34.699Z,2.97
2018-05-21T06:13:02.114Z,3.53
2018-05-21T06:15:29.642Z,2.75
2018-05-21T06:17:57.058Z,3.20
2018-05-21T06:20:24.486Z,3.03
2018-05-21T06:22:51.939Z,2.87
2018-05-21T06:25:19.410Z,3.55
2018-05-21T06:27:46.834Z,3.30
2018-05-21T06:30:14.262Z,3.35
2018-05-21T06:32:41.722Z,3.12
2018-05-21T06:35:09.148Z,3.58
2018-05-21T06:37:36.659Z,3.45
2018-05-21T06:40:04.127Z,3.05
2018-05-21T06:42:31.551Z,3.72
2018-05-21T06:45:00.496Z,3.08
2018-05-21T06:47:27.983Z,2.83
2018-05-21T06:49:55.438Z,3.00
2018-05-21T06:52:22.911Z,3.58
2018-05-21T06:54:50.344Z,3.70
2018-05-21T06:57:17.851Z,3.75
2018-05-21T06:59:45.348Z,3.70
2018-05-21T07:02:12.698Z,3.78
2018-05-21T07:04:40.131Z,3.65
2018-05-21T07:07:08.314Z,4.03
2018-05-21T07:09:36.539Z,3.67
2018-05-21T07:12:04.011Z,3.72
2018-05-21T07:14:31.446Z,3.87
2018-05-21T07:16:59.656Z,3.92
2018-05-21T07:19:27.074Z,3.37
2018-05-21T07:21:54.602Z,4.10
2018-05-21T07:24:22.052Z,3.25
2018-05-21T07:26:49.543Z,3.90
2018-05-21T07:29:16.967Z,3.80
2018-05-21T07:31:45.159Z,3.65
2018-05-21T07:34:12.667Z,3.70
2018-05-21T07:36:40.142Z,4.10
2018-05-21T07:39:07.563Z,3.75
2018-05-21T07:41:36.499Z,3.87
2018-05-21T07:44:03.987Z,4.03
2018-05-21T07:46:31.414Z,3.70
2018-05-21T07:48:59.659Z,3.70
2018-05-21T07:51:27.240Z,4.05
2018-05-21T07:53:54.526Z,3.72
2018-05-21T07:56:21.955Z,4.40
2018-05-21T07:58:49.401Z,3.70
2018-05-21T08:01:16.886Z,3.78
2018-05-21T08:03:44.305Z,4.07
2018-05-21T08:06:11.727Z,3.97
2018-05-21T08:08:39.150Z,3.97
2018-05-21T08:11:07.396Z,4.37
2018-05-21T08:13:34.809Z,4.10
2018-05-21T08:16:03.106Z,3.70
2018-05-21T08:18:31.290Z,4.40
2018-05-21T08:20:59.494Z,4.22
2018-05-21T08:23:26.977Z,4.28
2018-05-21T08:25:54.427Z,3.58
2018-05-21T08:28:22.606Z,3.90
2018-05-21T08:30:50.791Z,3.97
2018-05-21T08:33:19.015Z,3.90
2018-05-21T08:35:46.436Z,3.72
2018-05-21T08:38:13.858Z,4.22
2018-05-21T08:40:41.274Z,4.10
2018-05-21T08:43:08.698Z,4.00
2018-05-21T08:45:36.114Z,4.00
2018-05-21T08:48:03.633Z,4.05
2018-05-21T08:50:31.099Z,4.03
2018-05-21T08:52:58.566Z,3.90
2018-05-21T08:55:26.031Z,3.95
2018-05-21T08:57:53.464Z,3.60
2018-05-21T09:00:20.980Z,4.22
2018-05-21T09:02:48.351Z,4.00
2018-05-21T09:05:15.766Z,4.20
2018-05-21T09:07:43.287Z,3.60
2018-05-21T09:10:10.855Z,4.00
2018-05-21T09:12:38.183Z,4.18
2018-05-21T09:15:05.611Z,4.18
2018-05-21T09:17:33.059Z,4.15
2018-05-21T09:20:00.486Z,4.10
2018-05-21T09:22:28.004Z,4.72
2018-05-21T09:24:55.468Z,3.87
2018-05-21T09:27:22.943Z,3.53
2018-05-21T09:29:50.407Z,3.28
2018-05-21T09:32:17.908Z,3.75
2018-05-21T09:34:45.348Z,3.70
2018-05-21T09:37:12.816Z,3.83
2018-05-21T09:39:40.247Z,4.30
2018-05-21T09:42:07.737Z,4.12
2018-05-21T09:44:35.110Z,3.55
2018-05-21T09:47:02.700Z,3.85
2018-05-21T09:49:30.110Z,4.18
2018-05-21T09:51:57.531Z,3.47
2018-05-21T09:54:24.951Z,3.75
2018-05-21T09:56:52.478Z,3.78
2018-05-21T09:59:20.766Z,3.60
2018-05-21T10:01:48.191Z,4.05
2018-05-21T10:04:15.703Z,3.45
2018-05-21T10:06:43.118Z,3.58
2018-05-21T10:09:10.551Z,3.53
2018-05-21T10:11:37.971Z,4.12
2018-05-21T10:14:05.395Z,3.03
2018-05-21T10:16:32.959Z,3.22
2018-05-21T10:19:00.387Z,3.60
2018-05-21T10:21:28.615Z,3.47
2018-05-21T10:23:56.038Z,3.70
2018-05-21T10:26:23.555Z,3.70
2018-05-21T10:28:50.983Z,3.60
2018-05-21T10:31:18.495Z,3.70
2018-05-21T10:33:45.963Z,3.40
2018-05-21T10:36:13.435Z,4.05
2018-05-21T10:38:40.864Z,3.47
2018-05-21T10:41:09.043Z,2.85
2018-05-21T10:43:36.565Z,3.20
2018-05-21T10:46:03.982Z,3.20
2018-05-21T10:48:31.415Z,3.10
2018-05-21T10:50:58.830Z,3.00
2018-05-21T10:53:27.025Z,3.42
2018-05-21T10:55:55.243Z,3.12
2018-05-21T10:58:22.714Z,3.12
2018-05-21T11:00:50.174Z,3.17
2018-05-21T11:03:17.649Z,3.00
2018-05-21T11:05:45.115Z,3.10
2018-05-21T11:08:12.546Z,3.08
2018-05-21T11:10:39.964Z,3.20
2018-05-21T11:13:07.387Z,3.37
2018-05-21T11:15:34.900Z,3.25
2018-05-21T11:18:02.389Z,3.40
2018-05-21T11:20:29.834Z,3.05
2018-05-21T11:22:57.307Z,3.40
2018-05-21T11:25:24.774Z,3.28
2018-05-21T11:27:52.194Z,3.03
2018-05-21T11:30:20.382Z,2.72
2018-05-21T11:32:47.907Z,2.90
2018-05-21T11:35:15.375Z,3.08
2018-05-21T11:37:42.790Z,3.53
2018-05-21T11:40:10.214Z,3.37
2018-05-21T11:42:37.682Z,2.83
2018-05-21T11:45:05.150Z,3.90
2018-05-21T11:47:32.567Z,3.37
2018-05-21T11:49:59.994Z,3.35
2018-05-21T11:52:27.485Z,3.22
2018-05-21T11:54:55.642Z,3.70
2018-05-21T11:57:23.110Z,3.72
2018-05-21T11:59:50.579Z,3.47
2018-05-21T12:02:18.012Z,3.10
2018-05-21T12:04:45.519Z,3.40
2018-05-21T12:07:12.942Z,3.15
2018-05-21T12:09:41.875Z,4.10
2018-05-21T12:12:10.079Z,2.85
2018-05-21T12:14:37.506Z,3.20
2018-05-21T12:17:04.936Z,3.28
2018-05-21T12:19:32.395Z,3.45
2018-05-21T12:21:59.807Z,3.75
2018-05-21T12:24:27.238Z,3.53
2018-05-21T12:26:54.704Z,3.37
2018-05-21T12:29:22.194Z,3.20
2018-05-21T12:31:49.667Z,3.20
2018-05-21T12:34:17.106Z,3.10
2018-05-21T12:36:44.530Z,3.75
2018-05-21T12:39:12.051Z,3.12
2018-05-21T12:41:39.479Z,3.45
2018-05-21T12:44:07.000Z,3.30
2018-05-21T12:46:34.470Z,3.25
2018-05-21T12:49:01.901Z,3.30
2018-05-21T12:51:30.114Z,3.22
2018-05-21T12:53:57.579Z,3.58
2018-05-21T12:56:25.000Z,3.50
2018-05-21T12:58:52.422Z,3.60
2018-05-21T13:01:19.843Z,3.45
2018-05-21T13:03:47.365Z,5.82
2018-05-21T13:06:14.792Z,3.97
2018-05-21T13:08:43.018Z,3.92
2018-05-21T13:11:10.489Z,3.50
2018-05-21T13:13:37.908Z,3.80
2018-05-21T13:16:05.330Z,3.45
2018-05-21T13:18:32.802Z,3.53
2018-05-21T13:21:00.230Z,3.15
2018-05-21T13:23:28.422Z,3.08
2018-05-21T13:25:56.615Z,3.37
2018-05-21T13:28:24.800Z,3.22
2018-05-21T13:30:53.007Z,3.08
2018-05-21T13:33:20.479Z,3.40
2018-05-21T13:35:47.959Z,3.33
2018-05-21T13:38:15.378Z,3.35
2018-05-21T13:40:42.842Z,2.90
2018-05-21T13:43:10.321Z,3.10
2018-05-21T13:45:37.719Z,3.37
2018-05-21T13:48:05.237Z,3.33
2018-05-21T13:50:32.667Z,3.42
2018-05-21T13:53:00.088Z,2.95
2018-05-21T13:55:27.610Z,3.40
2018-05-21T13:57:55.078Z,3.70
2018-05-21T14:00:22.552Z,3.12
2018-05-21T14:02:49.966Z,3.37
2018-05-21T14:05:17.493Z,3.12
2018-05-21T14:07:44.957Z,3.55
2018-05-21T14:10:12.427Z,3.00
2018-05-21T14:12:40.014Z,3.28
2018-05-21T14:15:07.326Z,3.65
2018-05-21T14:17:35.535Z,3.40
2018-05-21T14:20:03.752Z,3.42
2018-05-21T14:22:31.170Z,3.20
2018-05-21T14:24:59.370Z,3.50
2018-05-21T14:27:27.583Z,3.53
2018-05-21T14:29:55.003Z,3.05
2018-05-21T14:32:22.423Z,3.72
2018-05-21T14:34:49.871Z,3.12
2018-05-21T14:37:18.078Z,3.10
2018-05-21T14:39:45.505Z,2.80
2018-05-21T14:42:12.998Z,3.60
2018-05-21T14:44:41.230Z,3.47
2018-05-21T14:47:08.655Z,3.17
2018-05-21T14:49:36.846Z,3.05
2018-05-21T14:52:05.031Z,2.95
2018-05-21T14:54:33.224Z,2.83
2018-05-21T14:57:00.640Z,3.17
2018-05-21T14:59:28.067Z,3.10
2018-05-21T15:01:55.492Z,3.22
2018-05-21T15:04:23.063Z,2.97
2018-05-21T15:06:50.585Z,2.97
2018-05-21T15:09:18.059Z,3.10
2018-05-21T15:11:45.522Z,3.50
2018-05-21T15:14:12.990Z,2.95
2018-05-21T15:16:40.414Z,3.50
2018-05-21T15:19:07.938Z,4.53
2018-05-21T15:21:35.402Z,3.08
2018-05-21T15:24:02.882Z,3.08
2018-05-21T15:26:30.305Z,2.87
2018-05-21T15:28:57.814Z,3.37
2018-05-21T15:31:25.306Z,3.12
2018-05-21T15:33:52.729Z,3.15
2018-05-21T15:36:20.951Z,2.92
2018-05-21T15:38:48.414Z,2.75
2018-05-21T15:41:15.852Z,2.95
2018-05-21T15:43:43.263Z,2.70
2018-05-21T15:46:10.722Z,3.17
2018-05-21T15:48:38.281Z,2.80
2018-05-21T15:51:05.682Z,3.10
2018-05-21T15:53:33.114Z,3.00
2018-05-21T15:56:00.542Z,3.20
2018-05-21T15:58:27.963Z,3.10
2018-05-21T16:00:55.391Z,3.05
2018-05-21T16:03:22.902Z,4.78
2018-05-21T16:05:50.331Z,3.08
2018-05-21T16:08:17.750Z,3.05
2018-05-21T16:10:45.179Z,2.78
2018-05-21T16:13:13.362Z,2.90
2018-05-21T16:15:41.559Z,2.60
2018-05-21T16:18:09.751Z,2.58
2018-05-21T16:20:37.966Z,3.00
2018-05-21T16:23:05.430Z,2.40
2018-05-21T16:25:32.858Z,2.67
2018-05-21T16:28:00.383Z,2.95
2018-05-21T16:30:27.806Z,2.83
2018-05-21T16:32:55.998Z,2.60
2018-05-21T16:35:24.220Z,2.83
2018-05-21T16:37:51.680Z,2.42
2018-05-21T16:40:19.112Z,2.67
2018-05-21T16:42:46.531Z,2.65
2018-05-21T16:45:13.987Z,2.75
2018-05-21T16:47:41.508Z,3.10
2018-05-21T16:50:08.935Z,2.83
2018-05-21T16:52:36.410Z,3.50
2018-05-21T16:55:03.849Z,2.72
2018-05-21T16:57:32.040Z,2.90
2018-05-21T17:00:00.228Z,2.67
2018-05-21T17:02:27.710Z,2.58
2018-05-21T17:04:55.136Z,3.00
2018-05-21T17:07:22.725Z,2.78
2018-05-21T17:09:50.139Z,3.10
2018-05-21T17:12:17.591Z,3.12
2018-05-21T17:14:45.023Z,2.80
2018-05-21T17:17:12.438Z,2.72
2018-05-21T17:19:39.858Z,2.97
2018-05-21T17:22:07.375Z,3.10
2018-05-21T17:24:34.791Z,2.70
2018-05-21T17:27:02.223Z,3.03
2018-05-21T17:29:29.683Z,3.30
2018-05-21T17:31:57.122Z,3.03
2018-05-21T17:34:25.351Z,3.17
2018-05-21T17:36:52.802Z,2.80
2018-05-21T17:39:20.286Z,4.00
2018-05-21T17:41:47.699Z,2.78
2018-05-21T17:44:15.124Z,2.90
2018-05-21T17:46:42.550Z,2.53
2018-05-21T17:49:10.744Z,3.00
2018-05-21T17:51:38.982Z,2.60
2018-05-21T17:54:07.139Z,3.00
2018-05-21T17:56:34.567Z,2.55
2018-05-21T17:59:01.988Z,2.90
2018-05-21T18:01:29.415Z,2.80
2018-05-21T18:03:57.632Z,3.00
2018-05-21T18:06:25.054Z,2.55
2018-05-21T18:08:52.524Z,3.00
2018-05-21T18:11:19.905Z,3.22
2018-05-21T18:13:48.127Z,2.90
2018-05-21T18:16:15.594Z,2.83
2018-05-21T18:18:43.102Z,3.05
2018-05-21T18:21:10.543Z,2.92
2018-05-21T18:23:37.984Z,3.20
2018-05-21T18:26:05.487Z,2.80
2018-05-21T18:28:32.947Z,2.92
2018-05-21T18:31:00.423Z,3.30
2018-05-21T18:33:27.848Z,3.20
2018-05-21T18:35:55.349Z,2.90
2018-05-21T18:38:22.723Z,2.60
2018-05-21T18:40:50.199Z,2.90
2018-05-21T18:43:17.625Z,2.60
2018-05-21T18:45:45.143Z,2.83
2018-05-21T18:48:12.566Z,3.47
2018-05-21T18:50:40.078Z,3.25
2018-05-21T18:53:07.494Z,3.40
2018-05-21T18:55:35.016Z,2.67
2018-05-21T18:58:02.439Z,2.65
2018-05-21T19:00:29.867Z,3.47
2018-05-21T19:02:57.328Z,2.97
2018-05-21T19:05:24.759Z,2.97
2018-05-21T19:07:52.948Z,3.08
2018-05-21T19:10:21.142Z,3.30
2018-05-21T19:12:49.386Z,2.85
2018-05-21T19:15:16.856Z,3.25
2018-05-21T19:17:44.307Z,2.90
2018-05-21T19:20:11.723Z,3.30
2018-05-21T19:22:39.163Z,3.00
2018-05-21T19:25:06.589Z,3.33
2018-05-21T19:27:34.037Z,3.45
2018-05-21T19:30:01.643Z,3.20
2018-05-21T19:32:29.069Z,3.20
2018-05-21T19:34:58.109Z,3.55
2018-05-21T19:37:25.481Z,3.50
2018-05-21T19:39:53.642Z,3.72
2018-05-21T19:42:22.578Z,4.22
2018-05-21T19:44:49.998Z,3.60
2018-05-21T19:47:18.954Z,3.95
2018-05-21T19:49:46.380Z,4.10
2018-05-21T19:52:15.346Z,4.05
2018-05-21T19:54:42.805Z,3.67
2018-05-21T19:57:10.227Z,4.03
2018-05-21T19:59:37.646Z,3.58
2018-05-21T20:02:05.111Z,3.92
2018-05-21T20:04:32.541Z,4.20
2018-05-21T20:07:00.730Z,3.97
2018-05-21T20:09:28.922Z,4.35
2018-05-21T20:11:57.123Z,4.00
2018-05-21T20:14:24.551Z,4.18
2018-05-21T20:16:51.988Z,3.75
2018-05-21T20:19:19.926Z,3.72
2018-05-21T20:21:47.305Z,4.25
2018-05-21T20:24:14.735Z,3.80
2018-05-21T20:26:42.260Z,4.57
2018-05-21T20:29:09.734Z,4.40
2018-05-21T20:31:37.155Z,4.15
2018-05-21T20:34:04.675Z,3.92
2018-05-21T20:36:32.144Z,4.18
2018-05-21T20:38:59.571Z,3.85
2018-05-21T20:41:26.987Z,4.65
2018-05-21T20:43:54.422Z,4.65
2018-05-21T20:46:22.610Z,4.65
2018-05-21T20:48:50.808Z,4.72
2018-05-21T20:51:18.238Z,4.78
2018-05-21T20:53:47.202Z,4.47
2018-05-21T20:56:14.618Z,4.80
2018-05-21T20:58:43.579Z,4.60
2018-05-21T21:01:11.010Z,4.70
2018-05-21T21:03:39.230Z,4.95
2018-05-21T21:06:06.647Z,4.93
2018-05-21T21:08:34.067Z,4.93
2018-05-21T21:11:01.510Z,5.32
2018-05-21T21:13:29.702Z,4.97
2018-05-21T21:15:57.135Z,4.65
2018-05-21T21:18:26.067Z,4.70
2018-05-21T21:20:54.301Z,4.75
2018-05-21T21:23:21.785Z,5.22
2018-05-21T21:25:49.952Z,5.20
2018-05-21T21:28:17.366Z,5.15
2018-05-21T21:30:44.794Z,5.65
2018-05-21T21:33:12.218Z,4.82
2018-05-21T21:35:40.430Z,5.12
2018-05-21T21:38:07.899Z,5.07
2018-05-21T21:40:35.326Z,5.37
2018-05-21T21:43:02.762Z,5.28
2018-05-21T21:45:30.218Z,4.78
2018-05-21T21:47:57.647Z,4.78
2018-05-21T21:50:25.833Z,4.78
2018-05-21T21:52:54.054Z,4.53
2018-05-21T21:55:21.478Z,4.70
2018-05-21T21:57:48.898Z,4.87
2018-05-21T22:00:16.363Z,4.65
2018-05-21T22:02:43.828Z,5.00
2018-05-21T22:05:11.303Z,4.43
2018-05-21T22:07:38.770Z,4.20
2018-05-21T22:10:06.248Z,4.35
2018-05-21T22:12:33.818Z,4.20
2018-05-21T22:15:01.234Z,4.47
2018-05-21T22:17:28.676Z,3.90
2018-05-21T22:19:56.123Z,4.03
2018-05-21T22:22:23.546Z,4.12
2018-05-21T22:24:51.782Z,3.78
2018-05-21T22:27:19.201Z,3.75
2018-05-21T22:29:46.713Z,3.70
2018-05-21T22:32:14.187Z,3.70
2018-05-21T22:34:41.602Z,3.50
2018-05-21T22:37:09.124Z,3.45
2018-05-21T22:39:36.599Z,2.95
2018-05-21T22:42:04.030Z,2.58
2018-05-21T22:44:46.266Z,3.33
2018-05-21T22:47:14.460Z,3.22
2018-05-21T22:49:41.874Z,3.10
2018-05-21T22:52:09.306Z,3.42
2018-05-21T22:54:36.775Z,3.35
2018-05-21T22:57:04.196Z,2.85
2018-05-21T22:59:31.626Z,3.22
2018-05-21T23:01:59.050Z,2.83
2018-05-21T23:04:27.276Z,2.90
2018-05-21T23:06:54.698Z,3.35
2018-05-21T23:09:23.079Z,2.80
2018-05-21T23:11:51.263Z,2.85
2018-05-21T23:14:18.708Z,3.08
2018-05-21T23:16:46.158Z,2.80
2018-05-21T23:19:13.590Z,2.50
2018-05-21T23:21:41.095Z,2.92
2018-05-21T23:24:08.632Z,2.80
2018-05-21T23:26:37.570Z,3.00
2018-05-21T23:29:04.997Z,3.22
2018-05-21T23:31:32.414Z,3.17
2018-05-21T23:33:59.885Z,2.65
2018-05-21T23:36:28.046Z,2.65
2018-05-21T23:38:56.242Z,2.90
2018-05-21T23:41:23.732Z,2.97
2018-05-21T23:43:51.159Z,3.05
2018-05-21T23:46:19.359Z,2.97
2018-05-21T23:48:47.563Z,2.80
2018-05-21T23:51:14.985Z,2.80
2018-05-21T23:53:42.510Z,2.75
2018-05-21T23:56:09.930Z,2.62
2018-05-21T23:58:37.358Z,2.75
